Burlington, Indiana
Current Conditions -  °F | °C
As of 12:55 PM on Saturday 25 Oct 2014 (Local Time) from KGGP Reporting Station
Clear Clear  
Wind Chill: 66°   Ceiling: Unl
Heat Index: 66°   Visibility: 10mi
Dew Point: 50°   Wind: 8mph
Humidity: 56%   Direction: 290°WNW
Pressure: 29.95"   Gusts: NA
Location:  40.48°N, 86.39°W
Report Text: KGGP 251655Z AUTO 29007KT 10SM CLR 19/10 A2995 RMK AO2
Loading
Personal Weather Stations






























Interactive Weather Map
Tropical Storm Tracking
New forecast layout! Learn more

10-Day Weather Forecast

Advertisements
Track Severe Weather on mobile